createdAt,value
2022-10-08T00:00:48.764Z,2.07
2022-10-08T00:01:50.321Z,2.77
2022-10-08T00:02:53.684Z,2.60
2022-10-08T00:03:56.825Z,3.13
2022-10-08T00:04:58.489Z,2.63
2022-10-08T00:06:04.899Z,3.00
2022-10-08T00:07:07.140Z,3.10
2022-10-08T00:08:09.889Z,3.23
2022-10-08T00:09:11.427Z,2.97
2022-10-08T00:10:12.940Z,3.10
2022-10-08T00:11:17.247Z,3.13
2022-10-08T00:12:18.764Z,2.97
2022-10-08T00:13:20.953Z,3.07
2022-10-08T00:14:23.435Z,3.00
2022-10-08T00:15:25.013Z,3.00
2022-10-08T00:16:30.019Z,3.30
2022-10-08T00:17:31.664Z,3.30
2022-10-08T00:18:33.172Z,3.97
2022-10-08T00:19:34.779Z,4.10
2022-10-08T00:20:36.281Z,3.57
2022-10-08T00:21:39.308Z,3.27
2022-10-08T00:22:41.261Z,3.00
2022-10-08T00:23:44.056Z,3.00
2022-10-08T00:24:46.541Z,2.53
2022-10-08T00:25:48.125Z,2.23
2022-10-08T00:26:50.864Z,2.47
2022-10-08T00:27:52.425Z,2.37
2022-10-08T00:28:57.110Z,2.50
2022-10-08T00:29:58.961Z,2.57
2022-10-08T00:31:07.499Z,2.20
2022-10-08T00:32:09.081Z,2.33
2022-10-08T00:33:10.616Z,1.80
2022-10-08T00:34:15.994Z,2.20
2022-10-08T00:35:17.500Z,2.33
2022-10-08T00:36:19.031Z,2.10
2022-10-08T00:37:20.678Z,2.53
2022-10-08T00:38:22.195Z,2.23
2022-10-08T00:39:24.852Z,2.40
2022-10-08T00:40:26.468Z,2.60
2022-10-08T00:41:30.492Z,2.30
2022-10-08T00:42:32.032Z,2.73
2022-10-08T00:43:46.115Z,2.27
2022-10-08T00:44:50.042Z,2.23
2022-10-08T00:45:51.616Z,2.30
2022-10-08T00:46:53.620Z,2.33
2022-10-08T00:47:56.312Z,2.50
2022-10-08T00:49:13.857Z,2.47
2022-10-08T00:50:18.372Z,2.37
2022-10-08T00:51:19.904Z,2.60
2022-10-08T00:52:22.710Z,2.40
2022-10-08T00:53:24.364Z,2.70
2022-10-08T00:54:25.927Z,2.80
2022-10-08T00:55:29.155Z,3.03
2022-10-08T00:56:35.976Z,2.43
2022-10-08T00:57:38.632Z,2.30
2022-10-08T00:58:42.983Z,3.13
2022-10-08T00:59:44.543Z,3.00
2022-10-08T01:00:47.744Z,2.77
2022-10-08T01:01:49.583Z,2.57
2022-10-08T01:02:52.134Z,2.30
2022-10-08T01:03:54.272Z,2.70
2022-10-08T01:04:55.967Z,2.83
2022-10-08T01:06:15.295Z,3.03
2022-10-08T01:07:20.537Z,2.37
2022-10-08T01:08:32.052Z,2.37
2022-10-08T01:09:40.711Z,2.30
2022-10-08T01:11:01.569Z,2.20
2022-10-08T01:12:15.883Z,2.43
2022-10-08T01:13:31.211Z,2.00
2022-10-08T01:14:32.670Z,2.00
2022-10-08T01:15:50.015Z,2.50
2022-10-08T01:16:58.318Z,1.97
2022-10-08T01:18:44.429Z,2.50
2022-10-08T01:20:17.325Z,2.00
2022-10-08T01:21:24.599Z,2.80
2022-10-08T01:22:50.905Z,2.43
2022-10-08T01:24:05.977Z,2.30
2022-10-08T01:25:34.653Z,2.40
2022-10-08T01:26:39.286Z,2.47
2022-10-08T01:27:47.919Z,2.30
2022-10-08T01:29:01.283Z,2.03
2022-10-08T01:30:07.309Z,2.60
2022-10-08T01:31:20.498Z,2.70
2022-10-08T01:32:29.822Z,2.30
2022-10-08T01:33:43.244Z,2.60
2022-10-08T01:34:49.837Z,2.47
2022-10-08T01:35:57.645Z,2.30
2022-10-08T01:37:01.267Z,2.47
2022-10-08T01:38:07.127Z,2.70
2022-10-08T01:39:13.322Z,2.40
2022-10-08T01:40:22.511Z,2.90
2022-10-08T01:41:26.315Z,2.50
2022-10-08T01:42:32.207Z,2.70
2022-10-08T01:43:38.435Z,2.97
2022-10-08T01:44:49.508Z,2.80
2022-10-08T01:45:58.955Z,3.17
2022-10-08T01:47:05.375Z,2.93
2022-10-08T01:48:14.853Z,2.70
2022-10-08T01:49:22.705Z,2.90
2022-10-08T01:50:30.657Z,2.67
2022-10-08T01:51:41.954Z,2.47
2022-10-08T01:52:50.422Z,2.77
2022-10-08T01:53:53.135Z,3.10
2022-10-08T01:54:59.821Z,3.27
2022-10-08T01:56:04.432Z,2.80
2022-10-08T01:57:09.390Z,3.10
2022-10-08T01:58:21.894Z,3.37
2022-10-08T01:59:31.191Z,3.50
2022-10-08T02:00:34.713Z,2.60
2022-10-08T02:02:00.665Z,2.93
2022-10-08T02:03:02.915Z,3.13
2022-10-08T02:04:23.376Z,2.93
2022-10-08T02:05:29.792Z,3.40
2022-10-08T02:06:37.232Z,2.53
2022-10-08T02:07:43.369Z,3.00
2022-10-08T02:08:44.989Z,3.33
2022-10-08T02:10:01.068Z,2.90
2022-10-08T02:11:02.612Z,2.97
2022-10-08T02:12:04.996Z,2.80
2022-10-08T02:13:06.902Z,2.73
2022-10-08T02:14:08.492Z,2.70
2022-10-08T02:15:23.405Z,2.60
2022-10-08T02:16:29.625Z,2.80
2022-10-08T02:18:06.228Z,3.47
2022-10-08T02:19:15.202Z,2.60
2022-10-08T02:20:26.474Z,3.00
2022-10-08T02:21:29.710Z,2.90
2022-10-08T02:23:03.743Z,2.97
2022-10-08T02:24:14.555Z,2.80
2022-10-08T02:25:21.574Z,2.93
2022-10-08T02:26:31.962Z,3.00
2022-10-08T02:27:43.917Z,3.17
2022-10-08T02:29:00.756Z,2.60
2022-10-08T02:30:09.898Z,2.40
2022-10-08T02:31:45.019Z,2.70
2022-10-08T02:32:57.936Z,2.50
2022-10-08T02:34:09.829Z,2.60
2022-10-08T02:35:19.254Z,2.20
2022-10-08T02:36:28.427Z,3.17
2022-10-08T02:37:40.470Z,2.67
2022-10-08T02:38:50.440Z,2.60
2022-10-08T02:39:59.901Z,2.47
2022-10-08T02:41:05.357Z,2.90
2022-10-08T02:42:11.690Z,2.70
2022-10-08T02:43:20.389Z,2.90
2022-10-08T02:44:36.947Z,2.80
2022-10-08T02:45:46.485Z,3.03
2022-10-08T02:46:53.404Z,2.83
2022-10-08T02:48:04.071Z,3.30
2022-10-08T02:49:10.720Z,3.50
2022-10-08T02:50:17.897Z,3.40
2022-10-08T02:51:19.828Z,3.27
2022-10-08T02:52:27.226Z,3.03
2022-10-08T02:53:30.019Z,3.43
2022-10-08T02:54:37.897Z,2.93
2022-10-08T02:56:08.652Z,3.20
2022-10-08T02:57:20.035Z,2.90
2022-10-08T02:58:22.107Z,3.10
2022-10-08T02:59:25.287Z,3.20
2022-10-08T03:00:35.300Z,3.63
2022-10-08T03:01:44.450Z,3.60
2022-10-08T03:03:02.005Z,3.40
2022-10-08T03:04:24.015Z,3.80
2022-10-08T03:05:27.198Z,3.67
2022-10-08T03:06:30.082Z,3.73
2022-10-08T03:07:33.924Z,3.57
2022-10-08T03:08:39.186Z,3.47
2022-10-08T03:09:44.521Z,3.80
2022-10-08T03:10:47.095Z,3.60
2022-10-08T03:11:49.497Z,4.13
2022-10-08T03:12:51.025Z,3.57
2022-10-08T03:13:58.679Z,3.93
2022-10-08T03:15:01.278Z,3.60
2022-10-08T03:16:07.227Z,3.63
2022-10-08T03:17:11.787Z,3.80
2022-10-08T03:18:13.523Z,3.70
2022-10-08T03:19:17.707Z,3.90
2022-10-08T03:20:19.508Z,3.60
2022-10-08T03:21:21.193Z,4.00
2022-10-08T03:22:24.099Z,3.97
2022-10-08T03:23:25.672Z,3.80
2022-10-08T03:24:27.245Z,4.13
2022-10-08T03:25:28.864Z,4.23
2022-10-08T03:26:30.396Z,3.43
2022-10-08T03:27:31.957Z,3.97
2022-10-08T03:28:33.861Z,3.77
2022-10-08T03:29:35.623Z,3.97
2022-10-08T03:30:37.401Z,3.57
2022-10-08T03:31:39.204Z,3.47
2022-10-08T03:32:40.710Z,3.30
2022-10-08T03:33:42.227Z,2.87
2022-10-08T03:34:43.779Z,3.40
2022-10-08T03:35:46.630Z,3.10
2022-10-08T03:36:48.160Z,3.30
2022-10-08T03:37:51.607Z,2.90
2022-10-08T03:38:53.188Z,3.40
2022-10-08T03:39:54.700Z,3.80
2022-10-08T03:40:58.170Z,3.20
2022-10-08T03:41:59.709Z,3.07
2022-10-08T03:43:01.227Z,3.53
2022-10-08T03:44:03.211Z,3.00
2022-10-08T03:45:05.705Z,2.97
2022-10-08T03:46:08.869Z,3.47
2022-10-08T03:47:10.434Z,3.30
2022-10-08T03:48:11.922Z,3.37
2022-10-08T03:49:13.607Z,3.00
2022-10-08T03:50:15.126Z,3.57
2022-10-08T03:51:18.447Z,3.43
2022-10-08T03:52:19.961Z,3.83
2022-10-08T03:53:22.573Z,3.30
2022-10-08T03:54:24.335Z,3.00
2022-10-08T03:55:25.868Z,3.03
2022-10-08T03:56:27.565Z,3.37
2022-10-08T03:57:29.093Z,3.00
2022-10-08T03:58:30.872Z,3.23
2022-10-08T03:59:32.409Z,3.60
2022-10-08T04:00:33.932Z,3.50
2022-10-08T04:01:35.608Z,3.67
2022-10-08T04:02:37.211Z,3.90
2022-10-08T04:03:38.861Z,3.90
2022-10-08T04:04:40.425Z,3.50
2022-10-08T04:05:49.137Z,4.30
2022-10-08T04:06:50.702Z,4.10
2022-10-08T04:07:52.292Z,4.30
2022-10-08T04:08:56.023Z,4.20
2022-10-08T04:09:57.540Z,4.13
2022-10-08T04:11:03.820Z,4.33
2022-10-08T04:12:05.447Z,4.70
2022-10-08T04:13:06.985Z,3.93
2022-10-08T04:14:08.598Z,4.30
2022-10-08T04:15:10.458Z,4.03
2022-10-08T04:16:15.127Z,4.00
2022-10-08T04:17:16.721Z,3.67
2022-10-08T04:18:18.515Z,4.10
2022-10-08T04:19:20.035Z,4.43
2022-10-08T04:20:21.543Z,4.10
2022-10-08T04:21:23.114Z,4.40
2022-10-08T04:22:24.686Z,4.27
2022-10-08T04:23:26.859Z,4.30
2022-10-08T04:24:28.356Z,4.83
2022-10-08T04:25:29.948Z,4.80
2022-10-08T04:26:31.716Z,4.50
2022-10-08T04:27:33.234Z,4.40
2022-10-08T04:28:39.641Z,4.40
2022-10-08T04:29:41.210Z,4.47
2022-10-08T04:30:42.744Z,4.77
2022-10-08T04:31:44.333Z,4.57
2022-10-08T04:32:46.193Z,4.47
2022-10-08T04:33:48.023Z,3.90
2022-10-08T04:34:49.557Z,4.50
2022-10-08T04:35:51.109Z,4.70
2022-10-08T04:36:52.619Z,3.87
2022-10-08T04:37:54.122Z,3.97
2022-10-08T04:38:55.655Z,4.37
2022-10-08T04:39:57.184Z,4.40
2022-10-08T04:41:10.640Z,4.63
2022-10-08T04:42:12.123Z,4.57
2022-10-08T04:43:16.256Z,4.60
2022-10-08T04:44:17.784Z,4.70
2022-10-08T04:45:19.382Z,4.57
2022-10-08T04:46:22.386Z,4.40
2022-10-08T04:47:23.978Z,4.90
2022-10-08T04:48:25.577Z,4.73
2022-10-08T04:49:28.938Z,4.57
2022-10-08T04:50:30.454Z,4.90
2022-10-08T04:51:32.075Z,4.67
2022-10-08T04:52:33.596Z,4.57
2022-10-08T04:53:35.703Z,3.90
2022-10-08T04:54:37.276Z,4.00
2022-10-08T04:55:38.778Z,4.47
2022-10-08T04:56:40.363Z,4.30
2022-10-08T04:57:41.902Z,4.03
2022-10-08T04:58:44.654Z,4.20
2022-10-08T05:00:13.130Z,4.20
2022-10-08T05:01:10.367Z,5.53
2022-10-08T05:02:11.980Z,6.37
2022-10-08T05:03:14.250Z,6.20
2022-10-08T05:04:15.888Z,7.13
2022-10-08T05:05:17.436Z,6.60
2022-10-08T05:06:22.784Z,6.40
2022-10-08T05:07:24.450Z,7.33
2022-10-08T05:08:26.055Z,7.53
2022-10-08T05:09:27.598Z,7.10
2022-10-08T05:10:29.122Z,7.23
2022-10-08T05:11:32.448Z,7.17
2022-10-08T05:12:33.967Z,6.47
2022-10-08T05:13:35.950Z,7.30
2022-10-08T05:14:37.513Z,7.00
2022-10-08T05:15:39.076Z,6.67
2022-10-08T05:16:40.633Z,6.77
2022-10-08T05:17:42.169Z,6.60
2022-10-08T05:18:44.358Z,6.53
2022-10-08T05:19:45.956Z,6.87
2022-10-08T05:20:47.485Z,7.43
2022-10-08T05:21:49.003Z,7.10
2022-10-08T05:22:50.712Z,6.87
2022-10-08T05:24:11.920Z,6.90
2022-10-08T05:25:13.944Z,8.17
2022-10-08T05:26:41.143Z,8.43
2022-10-08T05:27:43.957Z,6.13
2022-10-08T05:28:49.721Z,7.93
2022-10-08T05:29:51.229Z,7.33
2022-10-08T05:30:52.803Z,7.50
2022-10-08T05:31:54.366Z,7.63
2022-10-08T05:32:55.929Z,7.30
2022-10-08T05:33:57.698Z,7.40
2022-10-08T05:34:59.226Z,7.03
2022-10-08T05:36:04.209Z,6.60
2022-10-08T05:37:05.750Z,6.80
2022-10-08T05:38:07.298Z,6.60
2022-10-08T05:39:08.910Z,7.07
2022-10-08T05:40:10.929Z,6.80
2022-10-08T05:41:23.413Z,6.83
2022-10-08T05:42:24.920Z,6.30
2022-10-08T05:43:26.437Z,6.17
2022-10-08T05:44:27.959Z,7.03
2022-10-08T05:45:29.490Z,6.33
2022-10-08T05:46:33.673Z,5.63
2022-10-08T05:47:35.242Z,6.30
2022-10-08T05:48:37.192Z,6.47
2022-10-08T05:49:38.785Z,5.70
2022-10-08T05:50:40.305Z,6.30
2022-10-08T05:51:41.867Z,6.63
2022-10-08T05:52:43.407Z,6.17
2022-10-08T05:53:47.519Z,6.17
2022-10-08T05:54:49.056Z,7.03
2022-10-08T05:55:59.799Z,6.83
2022-10-08T05:57:01.362Z,6.23
2022-10-08T05:58:02.893Z,6.53
2022-10-08T05:59:04.554Z,6.67
2022-10-08T06:00:06.635Z,6.57
2022-10-08T06:01:13.017Z,6.73
2022-10-08T06:02:14.585Z,6.90
2022-10-08T06:03:16.124Z,7.00
2022-10-08T06:04:18.729Z,6.57
2022-10-08T06:05:20.374Z,6.77
2022-10-08T06:06:23.146Z,6.67
2022-10-08T06:07:24.829Z,6.37
2022-10-08T06:08:26.477Z,5.97
2022-10-08T06:09:28.075Z,5.90
2022-10-08T06:10:32.099Z,5.97
2022-10-08T06:11:35.513Z,5.90
2022-10-08T06:12:37.017Z,5.43
2022-10-08T06:13:38.734Z,5.80
2022-10-08T06:14:40.849Z,5.97
2022-10-08T06:15:42.354Z,6.27
2022-10-08T06:16:43.905Z,5.83
2022-10-08T06:17:45.481Z,6.07
2022-10-08T06:18:47.181Z,5.67
2022-10-08T06:19:48.765Z,5.87
2022-10-08T06:20:50.717Z,6.13
2022-10-08T06:21:52.245Z,5.93
2022-10-08T06:22:53.791Z,5.90
2022-10-08T06:24:00.977Z,5.57
2022-10-08T06:25:02.485Z,5.97
2022-10-08T06:26:09.926Z,5.77
2022-10-08T06:27:11.770Z,5.87
2022-10-08T06:28:14.027Z,5.87
2022-10-08T06:29:18.262Z,5.93
2022-10-08T06:30:19.853Z,5.40
2022-10-08T06:31:22.033Z,5.90
2022-10-08T06:32:23.638Z,5.90
2022-10-08T06:33:25.224Z,5.60
2022-10-08T06:34:26.819Z,6.40
2022-10-08T06:35:30.284Z,6.07
2022-10-08T06:36:33.591Z,6.00
2022-10-08T06:37:35.317Z,5.67
2022-10-08T06:38:36.902Z,6.03
2022-10-08T06:39:38.458Z,5.23
2022-10-08T06:40:40.885Z,5.73
2022-10-08T06:41:42.518Z,5.90
2022-10-08T06:42:44.232Z,6.33
2022-10-08T06:43:46.156Z,5.50
2022-10-08T06:44:47.702Z,5.50
2022-10-08T06:45:49.305Z,5.30
2022-10-08T06:46:50.876Z,5.70
2022-10-08T06:47:52.403Z,5.90
2022-10-08T06:48:54.006Z,5.63
2022-10-08T06:49:55.569Z,5.50
2022-10-08T06:51:02.089Z,4.90
2022-10-08T06:52:03.624Z,5.40
2022-10-08T06:53:07.535Z,4.90
2022-10-08T06:54:09.104Z,5.40
2022-10-08T06:55:10.619Z,4.70
2022-10-08T06:56:14.908Z,4.50
2022-10-08T06:57:16.537Z,3.87
2022-10-08T06:58:18.031Z,3.20
2022-10-08T06:59:19.542Z,3.47
2022-10-08T07:00:21.132Z,3.47
2022-10-08T07:01:30.347Z,4.10
2022-10-08T07:02:34.449Z,3.80
2022-10-08T07:03:36.668Z,4.10
2022-10-08T07:04:38.341Z,3.90
2022-10-08T07:05:40.115Z,3.90
2022-10-08T07:06:41.654Z,3.67
2022-10-08T07:07:43.191Z,3.90
2022-10-08T07:08:45.536Z,3.80
2022-10-08T07:09:47.061Z,4.10
2022-10-08T07:10:50.022Z,4.00
2022-10-08T07:11:51.611Z,4.77
2022-10-08T07:12:53.180Z,4.60
2022-10-08T07:13:55.945Z,3.80
2022-10-08T07:14:57.476Z,4.30
2022-10-08T07:16:07.806Z,4.53
2022-10-08T07:17:09.421Z,4.00
2022-10-08T07:18:12.697Z,4.80
2022-10-08T07:19:15.248Z,4.47
2022-10-08T07:20:16.918Z,5.23
2022-10-08T07:21:20.720Z,4.43
2022-10-08T07:22:22.845Z,4.83
2022-10-08T07:23:24.583Z,4.72
2022-10-08T07:24:26.111Z,4.77
2022-10-08T07:25:27.632Z,4.90
2022-10-08T07:26:33.159Z,5.15
2022-10-08T07:27:34.733Z,5.28
2022-10-08T07:28:38.144Z,4.33
2022-10-08T07:29:39.803Z,4.37
2022-10-08T07:30:41.353Z,4.93
2022-10-08T07:31:42.915Z,5.32
2022-10-08T07:32:44.711Z,5.05
2022-10-08T07:33:46.614Z,4.60
2022-10-08T07:34:48.130Z,4.63
2022-10-08T07:35:49.698Z,4.70
2022-10-08T07:36:51.295Z,4.30
2022-10-08T07:37:52.814Z,4.05
2022-10-08T07:38:56.366Z,4.65
2022-10-08T07:39:57.875Z,4.27
2022-10-08T07:40:59.404Z,3.90
2022-10-08T07:42:00.896Z,4.00
2022-10-08T07:43:03.291Z,4.32
2022-10-08T07:44:06.017Z,4.40
2022-10-08T07:45:08.159Z,4.45
2022-10-08T07:46:11.747Z,4.78
2022-10-08T07:47:13.408Z,4.50
2022-10-08T07:48:16.457Z,5.22
2022-10-08T07:49:19.395Z,4.38
2022-10-08T07:50:21.616Z,4.30
2022-10-08T07:51:23.301Z,4.53
2022-10-08T07:52:24.789Z,4.38
2022-10-08T07:53:26.287Z,4.70
2022-10-08T07:54:27.807Z,4.40
2022-10-08T07:55:29.596Z,4.05
2022-10-08T07:56:31.948Z,4.32
2022-10-08T07:57:33.594Z,4.18
2022-10-08T07:58:36.194Z,4.80
2022-10-08T07:59:37.684Z,4.22
2022-10-08T08:00:42.895Z,4.47
2022-10-08T08:01:44.982Z,5.00
2022-10-08T08:02:48.860Z,4.20
2022-10-08T08:03:55.797Z,4.00
2022-10-08T08:04:57.428Z,4.20
2022-10-08T08:06:12.533Z,3.95
2022-10-08T08:07:14.825Z,3.80
2022-10-08T08:08:16.544Z,3.85
2022-10-08T08:09:18.664Z,4.10
2022-10-08T08:10:20.209Z,4.00
2022-10-08T08:11:24.010Z,3.70
2022-10-08T08:12:25.550Z,4.10
2022-10-08T08:13:31.873Z,3.77
2022-10-08T08:14:37.427Z,4.17
2022-10-08T08:15:38.992Z,4.00
2022-10-08T08:16:40.700Z,4.20
2022-10-08T08:17:42.374Z,4.03
2022-10-08T08:18:46.637Z,4.00
2022-10-08T08:19:48.166Z,3.72
2022-10-08T08:20:49.723Z,3.42
2022-10-08T08:21:51.303Z,4.15
2022-10-08T08:22:52.882Z,3.90
2022-10-08T08:23:59.550Z,3.90
2022-10-08T08:25:01.064Z,3.85
2022-10-08T08:26:04.412Z,4.22
2022-10-08T08:27:05.945Z,3.85
2022-10-08T08:28:07.510Z,4.00
2022-10-08T08:29:15.382Z,3.67
2022-10-08T08:30:16.960Z,3.80
2022-10-08T08:31:24.420Z,3.53
2022-10-08T08:32:28.659Z,3.87
2022-10-08T08:33:30.301Z,3.33
2022-10-08T08:34:31.893Z,3.55
2022-10-08T08:35:33.605Z,3.95
2022-10-08T08:36:37.719Z,4.10
2022-10-08T08:37:39.229Z,4.00
2022-10-08T08:38:40.776Z,3.70
2022-10-08T08:39:42.312Z,3.80
2022-10-08T08:40:43.879Z,3.90
2022-10-08T08:41:53.727Z,3.50
2022-10-08T08:42:56.769Z,4.20
2022-10-08T08:44:23.441Z,3.70
2022-10-08T08:45:48.776Z,3.90
2022-10-08T08:47:24.660Z,3.42
2022-10-08T08:48:33.348Z,3.63
2022-10-08T08:49:52.057Z,3.63
2022-10-08T08:50:56.320Z,3.58
2022-10-08T08:52:01.357Z,3.67
2022-10-08T08:53:05.037Z,3.72
2022-10-08T08:54:06.586Z,3.80
2022-10-08T08:55:17.200Z,4.15
2022-10-08T08:56:23.091Z,4.18
2022-10-08T08:57:42.439Z,3.90
2022-10-08T08:59:08.473Z,3.78
2022-10-08T09:00:18.028Z,4.60
2022-10-08T09:01:36.306Z,3.58
2022-10-08T09:02:47.391Z,3.92
2022-10-08T09:03:55.904Z,3.85
2022-10-08T09:05:08.305Z,3.85
2022-10-08T09:06:14.581Z,4.10
2022-10-08T09:07:21.790Z,4.53
2022-10-08T09:08:35.877Z,3.80
2022-10-08T09:09:42.866Z,4.30
2022-10-08T09:10:49.842Z,4.10
2022-10-08T09:11:51.414Z,3.83
2022-10-08T09:12:53.927Z,3.60
2022-10-08T09:14:14.624Z,4.25
2022-10-08T09:15:29.129Z,4.30
2022-10-08T09:16:30.700Z,5.68
2022-10-08T09:17:35.633Z,5.72
2022-10-08T09:18:37.865Z,5.35
2022-10-08T09:19:40.530Z,4.22
2022-10-08T09:20:42.568Z,4.40
2022-10-08T09:21:44.090Z,4.65
2022-10-08T09:22:46.366Z,5.05
2022-10-08T09:23:48.140Z,4.85
2022-10-08T09:24:59.399Z,4.10
2022-10-08T09:26:04.611Z,4.20
2022-10-08T09:27:14.746Z,4.90
2022-10-08T09:28:38.014Z,4.45
2022-10-08T09:29:39.697Z,4.38
2022-10-08T09:30:45.078Z,5.15
2022-10-08T09:31:48.896Z,4.80
2022-10-08T09:32:55.079Z,4.30
2022-10-08T09:34:13.244Z,3.95
2022-10-08T09:35:15.910Z,3.95
2022-10-08T09:36:29.311Z,4.10
2022-10-08T09:37:30.864Z,4.25
2022-10-08T09:38:39.206Z,4.18
2022-10-08T09:40:26.724Z,3.63
2022-10-08T09:41:30.255Z,3.75
2022-10-08T09:42:31.817Z,3.90
2022-10-08T09:43:35.588Z,4.10
2022-10-08T09:44:59.044Z,4.50
2022-10-08T09:46:11.187Z,5.00
2022-10-08T09:47:18.986Z,4.95
2022-10-08T09:48:28.534Z,4.47
2022-10-08T09:49:33.087Z,4.80
2022-10-08T09:50:37.425Z,3.78
2022-10-08T09:51:42.735Z,3.80
2022-10-08T09:52:45.250Z,3.75
2022-10-08T09:53:54.867Z,4.07
2022-10-08T09:55:07.117Z,4.63
2022-10-08T09:56:10.215Z,4.50
2022-10-08T09:57:17.658Z,4.20
2022-10-08T09:58:19.780Z,4.05
2022-10-08T09:59:25.103Z,4.00
2022-10-08T10:00:35.530Z,4.43
2022-10-08T10:01:45.837Z,4.65
2022-10-08T10:02:54.455Z,4.35
2022-10-08T10:03:58.665Z,4.88
2022-10-08T10:05:02.291Z,4.85
2022-10-08T10:06:04.399Z,4.30
2022-10-08T10:07:06.483Z,5.53
2022-10-08T10:08:46.457Z,4.78
2022-10-08T10:09:57.240Z,5.20
2022-10-08T10:10:59.251Z,4.85
2022-10-08T10:12:06.797Z,4.97
2022-10-08T10:13:25.281Z,4.38
2022-10-08T10:14:42.771Z,4.40
2022-10-08T10:15:49.516Z,3.90
2022-10-08T10:16:59.503Z,3.60
2022-10-08T10:18:13.813Z,3.22
2022-10-08T10:19:20.357Z,3.58
2022-10-08T10:20:30.205Z,3.38
2022-10-08T10:21:44.984Z,4.00
2022-10-08T10:23:10.703Z,4.75
2022-10-08T10:24:30.218Z,4.72
2022-10-08T10:25:56.179Z,4.70
2022-10-08T10:27:15.734Z,4.72
2022-10-08T10:28:33.807Z,4.32
2022-10-08T10:29:49.919Z,4.50
2022-10-08T10:31:03.424Z,4.13
2022-10-08T10:32:36.914Z,3.85
2022-10-08T10:33:49.710Z,3.95
2022-10-08T10:35:03.573Z,3.35
2022-10-08T10:36:10.685Z,3.63
2022-10-08T10:37:25.574Z,3.60
2022-10-08T10:38:29.644Z,4.25
2022-10-08T10:39:52.835Z,3.95
2022-10-08T10:41:09.707Z,4.30
2022-10-08T10:42:33.806Z,4.80
2022-10-08T10:43:48.136Z,5.10
2022-10-08T10:45:17.299Z,4.05
2022-10-08T10:46:33.505Z,3.97
2022-10-08T10:47:35.056Z,4.65
2022-10-08T10:48:36.586Z,3.92
2022-10-08T10:49:42.139Z,4.07
2022-10-08T10:51:01.310Z,4.55
2022-10-08T10:52:21.497Z,3.70
2022-10-08T10:53:30.486Z,3.85
2022-10-08T10:54:54.038Z,3.65
2022-10-08T10:56:07.372Z,4.13
2022-10-08T10:57:18.399Z,4.53
2022-10-08T10:58:25.653Z,4.30
2022-10-08T10:59:59.886Z,3.80
2022-10-08T11:01:22.782Z,3.72
2022-10-08T11:02:46.917Z,3.90
2022-10-08T11:03:51.345Z,3.70
2022-10-08T11:05:11.681Z,4.20
2022-10-08T11:06:38.247Z,3.72
2022-10-08T11:07:49.900Z,3.78
2022-10-08T11:08:55.962Z,3.80
2022-10-08T11:10:07.295Z,3.90
2022-10-08T11:11:18.181Z,3.70
2022-10-08T11:12:46.030Z,3.20
2022-10-08T11:13:56.868Z,3.38
2022-10-08T11:15:22.351Z,3.50
2022-10-08T11:16:39.373Z,3.17
2022-10-08T11:17:44.009Z,3.35
2022-10-08T11:18:54.401Z,3.83
2022-10-08T11:20:39.569Z,3.53
2022-10-08T11:21:47.026Z,3.45
2022-10-08T11:23:03.583Z,3.25
2022-10-08T11:24:42.725Z,3.70
2022-10-08T11:26:22.424Z,3.42
2022-10-08T11:27:42.482Z,3.47
2022-10-08T11:28:56.418Z,3.42
2022-10-08T11:30:14.195Z,3.38
2022-10-08T11:31:31.274Z,3.25
2022-10-08T11:32:34.000Z,3.92
2022-10-08T11:33:36.816Z,3.53
2022-10-08T11:34:40.257Z,3.00
2022-10-08T11:36:04.509Z,3.42
2022-10-08T11:37:45.765Z,3.25
2022-10-08T11:39:00.054Z,3.30
2022-10-08T11:40:10.560Z,2.85
2022-10-08T11:41:27.459Z,2.50
2022-10-08T11:43:01.964Z,3.17
2022-10-08T11:44:07.659Z,2.53
2022-10-08T11:45:24.317Z,2.50
2022-10-08T11:46:31.779Z,2.70
2022-10-08T11:47:48.545Z,2.78
2022-10-08T11:48:50.717Z,2.70
2022-10-08T11:49:55.795Z,2.83
2022-10-08T11:51:18.895Z,2.33
2022-10-08T11:52:20.456Z,2.60
2022-10-08T11:53:22.669Z,2.53
2022-10-08T11:54:34.719Z,2.15
2022-10-08T11:55:37.353Z,2.28
2022-10-08T11:56:51.707Z,2.30
2022-10-08T11:58:09.638Z,2.58
2022-10-08T11:59:30.196Z,1.92
2022-10-08T12:00:42.948Z,2.00
2022-10-08T12:01:52.981Z,2.03
2022-10-08T12:02:56.201Z,1.80
2022-10-08T12:04:08.689Z,2.15
2022-10-08T12:05:49.333Z,2.35
2022-10-08T12:07:06.401Z,2.00
2022-10-08T12:08:08.137Z,2.03
2022-10-08T12:09:24.597Z,2.22
2022-10-08T12:10:38.763Z,2.45
2022-10-08T12:11:40.363Z,1.92
2022-10-08T12:12:50.907Z,2.55
2022-10-08T12:14:11.074Z,2.75
2022-10-08T12:15:24.762Z,2.30
2022-10-08T12:16:49.235Z,2.47
2022-10-08T12:17:56.705Z,2.15
2022-10-08T12:18:59.054Z,2.00
2022-10-08T12:20:03.452Z,2.03
2022-10-08T12:21:17.181Z,1.98
2022-10-08T12:22:18.653Z,1.98
2022-10-08T12:23:20.108Z,1.90
2022-10-08T12:25:03.881Z,2.20
2022-10-08T12:26:37.446Z,2.33
2022-10-08T12:27:50.329Z,2.15
2022-10-08T12:28:51.911Z,2.30
2022-10-08T12:30:03.873Z,2.30
2022-10-08T12:31:17.609Z,2.28
2022-10-08T12:32:19.352Z,2.17
2022-10-08T12:33:21.543Z,2.15
2022-10-08T12:34:23.465Z,2.10
2022-10-08T12:35:40.503Z,1.80
2022-10-08T12:36:52.298Z,1.88
2022-10-08T12:38:05.044Z,1.80
2022-10-08T12:39:18.261Z,2.10
2022-10-08T12:40:33.737Z,2.30
2022-10-08T12:41:38.264Z,1.90
2022-10-08T12:42:41.133Z,1.83
2022-10-08T12:44:02.767Z,1.77
2022-10-08T12:45:34.265Z,1.80
2022-10-08T12:46:58.787Z,1.58
2022-10-08T12:48:00.373Z,2.10
2022-10-08T12:49:17.038Z,2.10
2022-10-08T12:50:48.181Z,1.52
2022-10-08T12:52:12.815Z,1.50
2022-10-08T12:53:17.553Z,1.60
2022-10-08T12:54:23.042Z,1.70
2022-10-08T12:55:24.797Z,1.95
2022-10-08T12:56:29.088Z,1.83
2022-10-08T12:57:38.058Z,2.08
2022-10-08T12:58:39.710Z,1.65
2022-10-08T12:59:42.323Z,1.88
2022-10-08T13:00:45.021Z,1.80
2022-10-08T13:01:48.171Z,1.75
2022-10-08T13:03:11.830Z,1.85
2022-10-08T13:04:26.439Z,1.67
2022-10-08T13:05:36.876Z,1.63
2022-10-08T13:06:38.481Z,1.60
2022-10-08T13:07:40.211Z,1.70
2022-10-08T13:08:42.725Z,1.98
2022-10-08T13:09:44.613Z,1.95
2022-10-08T13:10:46.353Z,1.80
2022-10-08T13:11:52.186Z,1.63
2022-10-08T13:13:05.029Z,1.70
2022-10-08T13:14:24.799Z,1.73
2022-10-08T13:15:26.406Z,1.58
2022-10-08T13:16:28.865Z,1.90
2022-10-08T13:17:33.492Z,2.13
2022-10-08T13:18:36.666Z,2.30
2022-10-08T13:19:40.238Z,2.10
2022-10-08T13:20:59.037Z,2.13
2022-10-08T13:22:01.905Z,1.90
2022-10-08T13:23:46.363Z,2.05
2022-10-08T13:24:47.936Z,1.85
2022-10-08T13:25:49.921Z,2.10
2022-10-08T13:26:54.285Z,2.17
2022-10-08T13:28:36.144Z,1.98
2022-10-08T13:29:42.452Z,1.98
2022-10-08T13:30:47.096Z,2.40
2022-10-08T13:32:14.823Z,2.10
2022-10-08T13:33:21.393Z,2.33
2022-10-08T13:34:26.112Z,2.20
2022-10-08T13:35:27.949Z,2.30
2022-10-08T13:36:29.601Z,2.20
2022-10-08T13:37:40.389Z,2.05
2022-10-08T13:38:41.932Z,2.30
2022-10-08T13:39:51.888Z,2.30
2022-10-08T13:40:58.801Z,2.58
2022-10-08T13:42:04.520Z,2.50
2022-10-08T13:43:06.806Z,2.47
2022-10-08T13:44:09.604Z,2.55
2022-10-08T13:45:25.402Z,2.20
2022-10-08T13:46:26.967Z,2.40
2022-10-08T13:47:29.095Z,2.15
2022-10-08T13:48:30.799Z,2.70
2022-10-08T13:49:33.228Z,2.50
2022-10-08T13:50:35.011Z,2.03
2022-10-08T13:51:36.560Z,2.35
2022-10-08T13:52:44.132Z,2.35
2022-10-08T13:53:45.923Z,2.50
2022-10-08T13:54:48.807Z,2.30
2022-10-08T13:55:50.542Z,2.50
2022-10-08T13:56:52.599Z,2.15
2022-10-08T13:57:55.897Z,2.25
2022-10-08T13:58:57.414Z,1.90
2022-10-08T13:59:58.993Z,1.80
2022-10-08T14:01:00.926Z,2.10
2022-10-08T14:02:02.551Z,2.22
2022-10-08T14:03:04.179Z,2.35
2022-10-08T14:04:05.736Z,1.88
2022-10-08T14:05:07.643Z,2.13
2022-10-08T14:06:09.199Z,1.92
2022-10-08T14:07:37.343Z,2.13
2022-10-08T14:08:38.932Z,2.05
2022-10-08T14:09:40.465Z,1.92
2022-10-08T14:10:42.819Z,2.30
2022-10-08T14:11:46.281Z,2.55
2022-10-08T14:12:48.104Z,2.53
2022-10-08T14:13:49.619Z,2.15
2022-10-08T14:14:51.294Z,2.45
2022-10-08T14:15:52.976Z,2.00
2022-10-08T14:16:54.541Z,2.13
2022-10-08T14:17:56.129Z,1.80
2022-10-08T14:18:59.332Z,1.90
2022-10-08T14:20:01.007Z,2.17
2022-10-08T14:21:02.594Z,1.88
2022-10-08T14:22:04.158Z,2.38
2022-10-08T14:23:05.717Z,2.05
2022-10-08T14:24:07.929Z,2.35
2022-10-08T14:25:19.737Z,2.03
2022-10-08T14:26:21.271Z,1.88
2022-10-08T14:27:22.843Z,2.00
2022-10-08T14:28:24.910Z,2.60
2022-10-08T14:29:26.565Z,2.30
2022-10-08T14:30:28.387Z,2.13
2022-10-08T14:31:30.056Z,1.80
2022-10-08T14:32:31.626Z,1.90
2022-10-08T14:33:33.186Z,2.08
2022-10-08T14:34:35.275Z,2.10
2022-10-08T14:35:36.803Z,2.10
2022-10-08T14:36:41.585Z,2.30
2022-10-08T14:37:43.486Z,2.30
2022-10-08T14:38:45.076Z,2.38
2022-10-08T14:39:46.667Z,2.10
2022-10-08T14:40:48.250Z,2.70
2022-10-08T14:41:49.893Z,2.22
2022-10-08T14:42:51.924Z,2.42
2022-10-08T14:43:53.699Z,2.40
2022-10-08T14:44:55.266Z,2.28
2022-10-08T14:45:56.884Z,2.22
2022-10-08T14:46:58.456Z,2.53
2022-10-08T14:47:59.981Z,2.45